Hector International Airport
KFAR : now visible

Airfield :











YOU CAN JOIN US ON...

 
LOGIN :

Register | Disclaimer

   EN    FR    IT 

 









Legend :    VFR   Marginal VFR   IFR   Intensive IFR   Very Intensive IFR
Visi :
Ceiling :
>= 8 km
>= 3000ft
5 to 8 km
1000 to 3000 ft
1500m to 5 km
500 to 1000 ft
800 to 1500m
200 to 500 ft
< 800m
< 200 ft
Symbols :   Thunderstorms  Fog  Heavy snow  Heavy precipitations  Wind > 20 kt






- Airport Elevation : 902 ft
- IATA code : FAR


KFAR - Hector International

CURRENT METAR :
  • 072001Z 13007KT 10SM VCTS FEW025 BKN050 OVC090 19/19 A2982 RMK AO2 LTG DSNT E TSE1955 T01940194

EXPIRED METARs :
  • 071953Z 11008KT 10SM TS SCT030 OVC050 19/19 A2982 RMK AO2 WSHFT 1913 LTG DSNT E RAE51 TSB1859 SLP095 P0062 T01940189
  • 071947Z 12008KT 3SM -TSRA BR BKN032 OVC050 19/19 A2982 RMK AO2 WSHFT 1913 TWR VIS 5 LTG DSNT E AND SE TSB1859 P0062
  • 071933Z 15006G16KT 1SM +TSRA BR OVC038 19/19 A2982 RMK AO2 WSHFT 1913 LTG DSNT E AND SE TSB1859 P0040 T01890189
  • 071916Z 20011KT 1 3/4SM +TSRA BR BKN048 BKN070 OVC110 20/19 A2984 RMK AO2 VIS 1V5 LTG DSNT SE AND W TSB1859 P0012 T02000194
  • 071908Z 23012KT 3SM TSRA BR SCT048 BKN080 OVC100 20/19 A2985 RMK AO2 LTG DSNT SE-W TSB1859 PRESRR P0009 T02000194
  • 071859Z 22008KT 1 1/2SM +TSRA BR BKN047 BKN075 OVC090 20/19 A2983 RMK AO2 LTG DSNT SE-W TSB59 P0002 T02000194
  • 071853Z 24010KT 4SM RA BR SCT055 BKN075 OVC095 20/19 A2983 RMK AO2 LTG DSNT S-W RAB1755 TSE08 SLP100 P0010 T02000189
  • 071814Z 21012KT 5SM RA BR FEW080 OVC110 22/21 A2983 RMK AO2 LTG DSNT SE-W RAB1755 TSE08 P0001 T02170211
  • 071753Z 19012G23KT 10SM TS FEW085 OVC110 23/21 A2982 RMK AO2 LTG DSNT SW AND W TSB53 SLP095 T02330206 10239 20194 53005

TAF KFAR
Valid from the 07 at 18:00 until the 08 at 18:00 UTC


071723Z 0718/0818 15013G21KT 4SM -TSRA BR OVC016CB
FM071900 17014G20KT P6SM VCTS OVC070CB
FM072000 17014G20KT P6SM OVC070
FM080300 16010KT P6SM BKN150
FM081000 20005KT P6SM BKN120
KZMP FIR / North America



MET'MAP, your aeronautical weather chart ! - Copyright ORBIFLY December 2007 - Disclaimer

ORBIFLY MET'MAP TEAM :

Programming & Development : Alexandra Zaïnal
Concept & original design : Baudouin d'Aumeries
Assistance for programming : Marc-Olivier Méhu
Technical & hardware support : Manuel Goepfert

Contact : metmap@orbifly.com




SOURCES & CREDITS :

   NOAA       Earth
Advisory